13°C Temp
2°C Dewpoint
47% Humidity
Temperature
10 KM/H
6 MPH
5 KTS
360°
Due North

Wind Speed
Clear
Conditions
Pressure 1018.92 (hPa) - 30.09 (in)
Visibility 5.0 (mi) - 8.0 (km)

Current Conditions
SAEZ
Location 120km(km)
Metar :SAEZ 122300Z 36005KT 8000 NSC 13/02 Q1019 NOSIG
Wed 12th May 20:00 pm

Airport
  Metar Aviation API Data Provided by https://www.checkwx.com/ PHP scripts by weather34.com ©2021